KPPA/PPA METAR and TAF weather

Enter ICAO airport designator
Station Type Date Time Source
KPPA METAR 2021/05/14 12:35 UTC NOAA

KPPA 141235Z AUTO 17021G24KT 10SM CLR 12/11 A3015 RMK AO2 T01230110


Station Type Date Time Source
KPPA Decoded METAR 2021/05/14 12:35 UTC NOAA

Pampa, Perry Lefors Field Airport, TX, United States (KPPA) 35-36-46N 100-59-46W
May 14, 2021 - 08:35 AM EDT / 2021.05.14 1235 UTC
Wind: from the S (170 degrees) at 24 MPH (21 KT) gusting to 28 MPH (24 KT):0
Visibility: 10 mile(s):0
Sky conditions: clear
Temperature: 54.1 F (12.3 C)
Dew Point: 51.8 F (11.0 C)
Relative Humidity: 91%
Pressure (altimeter): 30.15 in. Hg (1020 hPa)
ob: KPPA 141235Z AUTO 17021G24KT 10SM CLR 12/11 A3015 RMK AO2 T01230110
cycle: 12

Station Type Date Time Source
KPPA TAF UTC NOAA

Error!

Example: see airport list